Time;durP1;ratioP1;P1;durP2;ratioP2;P2;SDS_P1;SDS_P2;PMS_P1;PMS_P2;Temp;Humidity;BMP_temperature;BMP_pressure;BME280_temperature;BME280_humidity;BME280_pressure;Samples;Min_cycle;Max_cycle;Signal;HPM_P1;HPM_P2
2022/04/02 00:02:10;;;;;;;20.47;15.93;;;;;;;0.48;100.00;96962.88;5069030;28;20241;-64
2022/04/02 00:04:37;;;;;;;19.73;15.07;;;;;;;0.56;100.00;96961.59;5069021;28;20227;-64
2022/04/02 00:07:04;;;;;;;21.23;16.27;;;;;;;0.47;100.00;96961.22;5067673;28;20211;-64
2022/04/02 00:09:30;;;;;;;21.33;15.53;;;;;;;0.45;100.00;96968.25;5065124;28;20704;-67
2022/04/02 00:11:57;;;;;;;22.33;16.63;;;;;;;0.57;100.00;96957.25;5068414;28;20637;-65
2022/04/02 00:14:23;;;;;;;21.50;15.83;;;;;;;0.53;100.00;96959.16;5069114;28;20215;-65
2022/04/02 00:16:50;;;;;;;21.53;16.10;;;;;;;0.59;100.00;96951.06;5068021;28;20244;-65
2022/04/02 00:19:20;;;;;;;20.00;15.50;;;;;;;0.59;100.00;96951.06;5065436;28;20216;-65
2022/04/02 00:21:46;;;;;;;19.87;14.87;;;;;;;0.59;100.00;96951.06;5066539;28;20298;-66
2022/04/02 00:24:13;;;;;;;20.87;15.33;;;;;;;0.57;100.00;96958.09;5068181;28;20245;-67
2022/04/02 00:26:39;;;;;;;20.30;14.70;;;;;;;0.58;100.00;96959.78;5067304;28;20221;-66
2022/04/02 00:29:10;;;;;;;23.10;16.20;;;;;;;0.49;100.00;96949.00;5064675;28;20678;-66
2022/04/02 00:31:36;;;;;;;21.70;16.53;;;;;;;0.54;100.00;96955.66;5067987;28;20217;-67
2022/04/02 00:34:02;;;;;;;21.13;15.93;;;;;;;0.54;100.00;96955.66;5068807;28;20217;-67
2022/04/02 00:36:34;;;;;;;22.53;15.63;;;;;;;0.51;100.00;96947.97;5067631;28;20582;-66
2022/04/02 00:39:01;;;;;;;21.30;16.30;;;;;;;0.53;100.00;96953.97;5064836;28;20215;-66
2022/04/02 00:41:27;;;;;;;19.97;15.40;;;;;;;0.57;100.00;96955.47;5068085;28;20222;-67
2022/04/02 00:44:07;;;;;;;20.00;15.60;;;;;;;0.53;100.00;96951.38;5055058;28;20243;-66
2022/04/02 00:46:33;;;;;;;22.30;15.53;;;;;;;0.57;100.00;96957.25;5063714;28;20220;-66
2022/04/02 00:49:00;;;;;;;20.50;14.87;;;;;;;0.56;100.00;96953.81;5065229;28;20209;-66
2022/04/02 00:51:26;;;;;;;19.67;15.53;;;;;;;0.62;100.00;96956.09;5068113;28;20676;-66
2022/04/02 00:53:54;;;;;;;22.10;16.37;;;;;;;0.59;100.00;96951.06;5068296;28;20214;-66
2022/04/02 00:56:21;;;;;;;19.93;15.57;;;;;;;0.60;100.00;96963.16;5065670;28;20654;-67
2022/04/02 00:58:48;;;;;;;21.30;15.47;;;;;;;0.58;100.00;96954.59;5059829;28;20566;-66
2022/04/02 01:01:16;;;;;;;20.50;15.83;;;;;;;0.55;100.00;96954.72;5063343;28;20212;-68
2022/04/02 01:03:43;;;;;;;19.43;15.50;;;;;;;0.56;100.00;96953.81;5063729;28;20251;-66
2022/04/02 01:06:12;;;;;;;22.03;15.13;;;;;;;0.51;100.00;96953.19;5060848;28;20590;-67
2022/04/02 01:08:39;;;;;;;19.83;14.90;;;;;;;0.59;100.00;96958.88;5056621;28;20222;-65
2022/04/02 01:11:08;;;;;;;21.13;15.37;;;;;;;0.59;100.00;96958.88;5063567;28;20219;-66
2022/04/02 01:13:34;;;;;;;19.70;14.67;;;;;;;0.61;100.00;96957.03;5066614;28;20248;-66
2022/04/02 01:16:01;;;;;;;19.80;14.80;;;;;;;0.62;100.00;96956.09;5065469;28;20244;-66
2022/04/02 01:18:28;;;;;;;18.50;14.73;;;;;;;0.61;100.00;96961.41;5063958;28;20215;-66
2022/04/02 01:20:55;;;;;;;16.73;12.87;;;;;;;0.61;100.00;96964.81;5065797;28;20302;-67
2022/04/02 01:23:29;;;;;;;19.27;14.20;;;;;;;0.64;100.00;96962.09;5062014;28;20236;-65
2022/04/02 01:25:56;;;;;;;18.13;13.90;;;;;;;0.60;100.00;96957.94;5064551;28;20248;-65
2022/04/02 01:28:22;;;;;;;17.50;14.10;;;;;;;0.66;100.00;96962.84;5064646;28;20233;-66
2022/04/02 01:30:49;;;;;;;17.53;14.43;;;;;;;0.50;100.00;96972.28;5067581;28;20554;-66
2022/04/02 01:33:16;;;;;;;17.73;13.80;;;;;;;0.62;100.00;96966.50;5067205;28;20211;-66
2022/04/02 01:35:42;;;;;;;19.60;14.83;;;;;;;0.59;100.00;96987.47;5064535;28;20226;-66
2022/04/02 01:38:09;;;;;;;19.53;14.53;;;;;;;0.65;100.00;96974.16;5063557;28;20219;-66
2022/04/02 01:40:36;;;;;;;19.73;14.57;;;;;;;0.62;100.00;96966.50;5065659;28;20230;-66
2022/04/02 01:43:03;;;;;;;17.37;14.17;;;;;;;0.58;100.00;96980.59;5067240;28;20246;-67
2022/04/02 01:45:30;;;;;;;17.83;13.53;;;;;;;0.58;100.00;96983.19;5064440;28;20227;-67
2022/04/02 01:47:56;;;;;;;15.60;13.27;;;;;;;0.74;100.00;96976.31;5063279;28;20224;-67
2022/04/02 01:50:23;;;;;;;16.23;13.77;;;;;;;0.62;100.00;96976.91;5067196;28;20212;-67
2022/04/02 01:52:50;;;;;;;20.67;14.47;;;;;;;0.61;100.00;96970.03;5066835;28;20217;-66
2022/04/02 01:55:16;;;;;;;19.20;13.93;;;;;;;0.64;100.00;96975.09;5065158;28;20220;-66
2022/04/02 01:57:44;;;;;;;17.67;13.53;;;;;;;0.59;100.00;96987.47;5052795;28;20220;-66
2022/04/02 02:00:12;;;;;;;18.53;14.27;;;;;;;0.60;100.00;96975.28;5066900;28;20236;-66
2022/04/02 02:02:39;;;;;;;16.97;12.87;;;;;;;0.62;100.00;96976.91;5067061;28;20241;-66
2022/04/02 02:05:07;;;;;;;15.97;12.70;;;;;;;0.65;100.00;96976.78;5063038;28;20212;-65
2022/04/02 02:07:33;;;;;;;15.67;12.30;;;;;;;0.71;100.00;96979.06;5063157;28;20216;-68
2022/04/02 02:10:00;;;;;;;15.13;12.20;;;;;;;0.73;100.00;96979.84;5066435;28;20215;-66
2022/04/02 02:12:26;;;;;;;15.60;12.07;;;;;;;0.66;100.00;96985.41;5066638;28;20215;-66
2022/04/02 02:14:54;;;;;;;15.63;12.20;;;;;;;0.65;100.00;96981.97;5065423;28;20215;-66
2022/04/02 02:17:20;;;;;;;15.67;12.53;;;;;;;0.68;100.00;96992.22;5063011;28;20210;-66
2022/04/02 02:19:47;;;;;;;15.27;11.87;;;;;;;0.66;100.00;96990.59;5066207;28;20215;-66
2022/04/02 02:22:13;;;;;;;15.77;11.30;;;;;;;0.71;100.00;96993.81;5066426;28;20681;-65
2022/04/02 02:24:40;;;;;;;13.73;11.17;;;;;;;0.68;100.00;97000.00;5065535;28;20235;-63
2022/04/02 02:27:08;;;;;;;13.90;11.37;;;;;;;0.65;100.00;97002.78;5062694;28;20705;-64
2022/04/02 02:29:35;;;;;;;15.20;11.73;;;;;;;0.67;100.00;97011.31;5065911;28;20641;-64
2022/04/02 02:32:03;;;;;;;15.00;11.30;;;;;;;0.58;100.00;97001.38;5064926;28;20576;-64
2022/04/02 02:37:13;;;;;;;15.63;11.43;;;;;;;0.57;100.00;97007.47;5063589;28;20689;-66
2022/04/02 02:39:40;;;;;;;13.63;10.97;;;;;;;0.64;100.00;97019.28;5066658;28;20244;-66
2022/04/02 02:42:07;;;;;;;14.80;11.77;;;;;;;0.61;100.00;97014.22;5066599;28;20211;-66
2022/04/02 02:44:34;;;;;;;15.43;10.37;;;;;;;0.67;100.00;97015.66;5063524;28;20250;-66
2022/04/02 02:47:00;;;;;;;13.80;11.20;;;;;;;0.67;100.00;97018.28;5063273;28;20215;-66
2022/04/02 02:49:28;;;;;;;13.73;10.77;;;;;;;0.74;100.00;97023.13;5069915;28;20220;-64
2022/04/02 02:51:54;;;;;;;12.37;10.00;;;;;;;0.67;100.00;97019.13;5070616;28;20223;-64
2022/04/02 02:54:21;;;;;;;13.43;10.37;;;;;;;0.57;100.00;97015.28;5067994;28;20256;-65
2022/04/02 02:56:47;;;;;;;14.80;11.17;;;;;;;0.60;100.00;97020.34;5065026;28;20223;-66
2022/04/02 02:59:14;;;;;;;13.60;12.07;;;;;;;0.68;100.00;97023.41;5070587;28;20218;-65
2022/04/02 03:01:40;;;;;;;12.80;9.20;;;;;;;0.72;100.00;97024.94;5070401;28;20237;-65
2022/04/02 03:04:07;;;;;;;13.10;10.30;;;;;;;0.70;100.00;97031.13;5068211;28;20250;-66
2022/04/02 03:06:34;;;;;;;14.53;10.27;;;;;;;0.63;100.00;97034.94;5066607;28;20219;-66
2022/04/02 03:09:01;;;;;;;11.80;10.00;;;;;;;0.58;100.00;97032.56;5070035;28;20230;-66
2022/04/02 03:11:28;;;;;;;12.97;9.97;;;;;;;0.62;100.00;97039.28;5069887;28;20220;-65
2022/04/02 03:13:54;;;;;;;23.37;10.77;;;;;;;0.65;100.00;97033.09;5060127;28;20212;-66
2022/04/02 03:16:21;;;;;;;15.10;9.33;;;;;;;0.64;100.00;97040.09;5066120;28;20716;-66
2022/04/02 03:18:48;;;;;;;12.53;8.97;;;;;;;0.66;100.00;97040.84;5069326;28;20237;-66
2022/04/02 03:21:15;;;;;;;13.57;8.97;;;;;;;0.61;100.00;97037.63;5065463;28;20204;-66
2022/04/02 03:23:42;;;;;;;13.37;9.50;;;;;;;0.58;100.00;97039.53;5064615;28;20290;-65
2022/04/02 03:26:09;;;;;;;15.57;9.37;;;;;;;0.56;100.00;97044.78;5066312;28;20213;-65
2022/04/02 03:28:35;;;;;;;10.43;8.40;;;;;;;0.52;100.00;97045.88;5069062;28;20222;-66
2022/04/02 03:31:03;;;;;;;11.37;8.00;;;;;;;0.56;100.00;97044.78;5069587;28;20211;-63
2022/04/02 03:33:30;;;;;;;11.00;7.83;;;;;;;0.54;100.00;97041.44;5068493;28;20223;-63
2022/04/02 03:35:56;;;;;;;12.40;8.23;;;;;;;0.54;100.00;97046.63;5065759;28;20216;-63
2022/04/02 03:38:23;;;;;;;10.73;7.80;;;;;;;0.54;100.00;97041.44;5068268;28;20220;-63
2022/04/02 03:40:51;;;;;;;9.87;8.07;;;;;;;0.48;100.00;97052.09;5069802;28;20218;-63
2022/04/02 03:43:18;;;;;;;12.83;7.70;;;;;;;0.44;100.00;97055.75;5068557;28;20685;-63
2022/04/02 03:45:44;;;;;;;11.40;7.37;;;;;;;0.47;100.00;97060.81;5065662;28;20691;-64
2022/04/02 03:48:10;;;;;;;10.10;7.17;;;;;;;0.48;100.00;97052.09;5068063;28;20213;-64
2022/04/02 03:50:37;;;;;;;13.47;7.80;;;;;;;0.44;100.00;97066.16;5067895;28;20212;-63
2022/04/02 03:53:03;;;;;;;12.77;7.87;;;;;;;0.44;100.00;97066.16;5069249;28;20218;-64
2022/04/02 03:55:30;;;;;;;10.03;7.70;;;;;;;0.45;100.00;97057.44;5065742;28;20208;-64
2022/04/02 03:57:58;;;;;;;12.47;7.90;;;;;;;0.43;100.00;97059.28;5067415;28;20254;-64
2022/04/02 04:00:25;;;;;;;12.93;8.03;;;;;;;0.43;100.00;97061.06;5069010;28;20215;-64
2022/04/02 04:02:51;;;;;;;11.87;7.93;;;;;;;0.44;100.00;97066.16;5069263;28;20237;-64
2022/04/02 04:05:18;;;;;;;11.37;7.30;;;;;;;0.46;100.00;97069.53;5058855;28;20240;-65
2022/04/02 04:07:44;;;;;;;12.47;8.13;;;;;;;0.41;100.00;97071.50;5067229;28;20212;-65
2022/04/02 04:10:11;;;;;;;13.40;9.23;;;;;;;0.37;100.00;97069.94;5068943;28;20215;-65
2022/04/02 04:12:37;;;;;;;17.50;9.43;;;;;;;0.32;100.00;97071.91;5068955;28;20219;-65
2022/04/02 04:15:06;;;;;;;15.23;10.87;;;;;;;0.33;100.00;97073.59;5063873;28;20595;-64
2022/04/02 04:17:32;;;;;;;15.00;10.90;;;;;;;0.35;100.00;97082.19;5066584;28;20232;-64
2022/04/02 04:19:59;;;;;;;13.97;10.73;;;;;;;0.40;100.00;97080.22;5069117;28;20584;-64
2022/04/02 04:22:25;;;;;;;14.80;10.60;;;;;;;0.41;100.00;97081.91;5068835;28;20582;-65
2022/04/02 04:24:52;;;;;;;15.43;11.10;;;;;;;0.41;100.00;97081.03;5065795;28;20610;-65
2022/04/02 04:27:18;;;;;;;13.10;10.43;;;;;;;0.44;100.00;97079.16;5058548;28;20216;-64
2022/04/02 04:29:45;;;;;;;15.17;10.33;;;;;;;0.42;100.00;97083.59;5068421;28;20736;-65
2022/04/02 04:32:13;;;;;;;11.97;10.30;;;;;;;0.50;100.00;97085.84;5068472;28;20678;-65
2022/04/02 04:34:40;;;;;;;13.00;9.47;;;;;;;0.46;100.00;97089.47;5065758;28;20212;-64
2022/04/02 04:37:07;;;;;;;13.07;10.17;;;;;;;0.42;100.00;97095.72;5065191;28;20243;-65
2022/04/02 04:39:33;;;;;;;14.40;10.77;;;;;;;0.41;100.00;97092.28;5068291;28;20223;-65
2022/04/02 04:41:59;;;;;;;14.27;10.60;;;;;;;0.38;100.00;97092.41;5066654;28;20212;-65
2022/04/02 04:44:26;;;;;;;15.87;10.87;;;;;;;0.31;100.00;97093.63;5066136;28;20238;-66
2022/04/02 04:46:53;;;;;;;14.33;10.33;;;;;;;0.30;100.00;97104.94;5064411;28;20217;-66
2022/04/02 04:49:21;;;;;;;13.07;10.13;;;;;;;0.32;100.00;97094.47;5048699;28;20211;-65
2022/04/02 04:51:48;;;;;;;13.70;10.80;;;;;;;0.28;100.00;97101.56;5068373;28;20242;-65
2022/04/02 04:54:14;;;;;;;13.10;10.27;;;;;;;0.32;100.00;97105.69;5066065;28;20220;-65
2022/04/02 04:56:41;;;;;;;16.27;11.07;;;;;;;0.24;100.00;97110.41;5048959;28;20582;-65
2022/04/02 04:59:09;;;;;;;13.90;10.57;;;;;;;0.30;100.00;97110.13;5067875;28;20212;-65
2022/04/02 05:01:35;;;;;;;15.13;10.97;;;;;;;0.25;100.00;97106.88;5068055;28;20220;-65
2022/04/02 05:04:02;;;;;;;14.40;10.20;;;;;;;0.33;100.00;97109.97;5066471;28;20326;-65
2022/04/02 05:06:30;;;;;;;13.17;10.80;;;;;;;0.28;100.00;97121.50;5063500;28;20224;-65
2022/04/02 05:08:57;;;;;;;11.90;9.57;;;;;;;0.27;100.00;97123.28;5067116;28;20584;-65
2022/04/02 05:11:23;;;;;;;13.60;10.17;;;;;;;0.27;100.00;97128.47;5067097;28;20216;-65
2022/04/02 05:13:50;;;;;;;14.77;10.20;;;;;;;0.32;100.00;97123.88;5066308;28;20208;-65
2022/04/02 05:16:17;;;;;;;13.60;10.77;;;;;;;0.31;100.00;97116.19;5063869;28;20737;-65
2022/04/02 05:18:44;;;;;;;12.73;10.77;;;;;;;0.34;100.00;97126.41;5066582;28;20229;-65
2022/04/02 05:21:10;;;;;;;10.93;9.83;;;;;;;0.25;100.00;97132.88;5063717;28;20212;-65
2022/04/02 05:23:38;;;;;;;12.60;10.37;;;;;;;0.29;100.00;97124.03;5064038;28;20227;-64
2022/04/02 05:26:05;;;;;;;13.23;9.87;;;;;;;0.27;100.00;97131.06;5063597;28;20245;-64
2022/04/02 05:28:31;;;;;;;11.47;9.30;;;;;;;0.25;100.00;97138.06;5066460;28;20223;-65
2022/04/02 05:30:58;;;;;;;11.97;9.80;;;;;;;0.30;100.00;97140.44;5067701;28;20215;-64
2022/04/02 05:33:24;;;;;;;12.10;9.10;;;;;;;0.37;100.00;97136.69;5065429;28;20216;-64
2022/04/02 05:35:50;;;;;;;13.10;9.20;;;;;;;0.33;100.00;97142.94;5063810;28;20220;-65
2022/04/02 05:38:17;;;;;;;12.10;9.53;;;;;;;0.29;100.00;97142.22;5065429;28;20212;-66
2022/04/02 05:40:45;;;;;;;12.10;9.63;;;;;;;0.27;100.00;97146.66;5067371;28;20220;-65
2022/04/02 05:43:11;;;;;;;11.13;9.97;;;;;;;0.28;100.00;97153.53;5061730;28;20681;-65
2022/04/02 05:45:38;;;;;;;11.27;9.30;;;;;;;0.29;100.00;97155.22;5063526;28;20246;-65
2022/04/02 05:48:05;;;;;;;10.97;8.73;;;;;;;0.35;100.00;97162.75;5065116;28;20217;-66
2022/04/02 05:50:31;;;;;;;11.67;8.63;;;;;;;0.37;100.00;97158.31;5067332;28;20223;-65
2022/04/02 05:52:59;;;;;;;12.13;9.47;;;;;;;0.32;100.00;97159.44;5067446;28;20215;-65
2022/04/02 05:55:25;;;;;;;10.27;8.93;;;;;;;0.43;100.00;97168.44;5063313;28;20270;-66
2022/04/02 05:57:53;;;;;;;10.87;9.00;;;;;;;0.40;100.00;97163.38;5064626;28;20217;-65
2022/04/02 06:00:21;;;;;;;11.43;8.77;;;;;;;0.37;100.00;97167.88;5065314;28;20711;-65
2022/04/02 06:02:48;;;;;;;9.30;8.30;;;;;;;0.37;100.00;97168.69;5067287;28;20247;-65
2022/04/02 06:05:15;;;;;;;10.07;8.67;;;;;;;0.43;100.00;97178.81;5063345;28;20240;-64
2022/04/02 06:07:42;;;;;;;11.17;8.30;;;;;;;0.42;100.00;97176.28;5064134;28;20300;-65
2022/04/02 06:10:10;;;;;;;9.07;7.83;;;;;;;0.38;100.00;97175.56;5066839;28;20253;-65
2022/04/02 06:12:37;;;;;;;9.40;8.00;;;;;;;0.37;100.00;97173.06;5066827;28;20225;-65
2022/04/02 06:15:07;;;;;;;12.23;8.13;;;;;;;0.46;100.00;97178.69;5063085;28;20247;-64
2022/04/02 06:17:33;;;;;;;8.97;7.97;;;;;;;0.38;100.00;97187.75;5064532;28;20212;-64
2022/04/02 06:20:00;;;;;;;9.83;7.63;;;;;;;0.42;100.00;97192.72;5066638;28;20220;-65
2022/04/02 06:22:26;;;;;;;10.07;7.57;;;;;;;0.47;100.00;97189.91;5065474;28;20212;-64
2022/04/02 06:24:53;;;;;;;8.60;7.57;;;;;;;0.48;100.00;97191.59;5061024;28;20702;-65
2022/04/02 06:27:19;;;;;;;9.27;7.27;;;;;;;0.46;100.00;97199.50;5063958;28;20573;-66
2022/04/02 06:29:46;;;;;;;9.33;7.40;;;;;;;0.53;100.00;97200.91;5066372;28;20219;-66
2022/04/02 06:32:13;;;;;;;8.70;6.97;;;;;;;0.49;100.00;97209.75;5066510;28;20224;-66
2022/04/02 06:34:40;;;;;;;8.10;7.00;;;;;;;0.54;100.00;97207.78;5063498;28;20217;-65
2022/04/02 06:37:07;;;;;;;8.90;6.97;;;;;;;0.52;100.00;97211.38;5063615;28;20216;-65
2022/04/02 06:39:33;;;;;;;9.50;7.93;;;;;;;0.51;100.00;97218.31;5066357;28;20221;-66
2022/04/02 06:42:00;;;;;;;10.57;7.73;;;;;;;0.54;100.00;97218.19;5066676;28;20213;-66
2022/04/02 06:44:29;;;;;;;9.80;7.57;;;;;;;0.55;100.00;97225.06;5063697;28;20478;-66
2022/04/02 06:46:56;;;;;;;9.40;7.70;;;;;;;0.48;100.00;97228.00;5063022;28;20223;-66
2022/04/02 06:49:24;;;;;;;8.30;7.03;;;;;;;0.46;100.00;97230.69;5066321;28;20218;-66
2022/04/02 06:51:50;;;;;;;10.13;7.33;;;;;;;0.49;100.00;97221.91;5064975;28;20215;-67
2022/04/02 06:54:17;;;;;;;9.40;7.40;;;;;;;0.57;100.00;97235.41;5063958;28;20211;-66
2022/04/02 06:56:45;;;;;;;8.47;6.80;;;;;;;0.57;100.00;97238.00;5059473;28;20232;-67
2022/04/02 06:59:11;;;;;;;8.77;7.60;;;;;;;0.59;100.00;97247.44;5066229;28;20219;-66
2022/04/02 07:01:38;;;;;;;9.33;6.97;;;;;;;0.60;100.00;97243.06;5066383;28;20251;-66
2022/04/02 07:04:05;;;;;;;7.60;6.80;;;;;;;0.57;100.00;97249.22;5064175;28;20211;-67
2022/04/02 07:06:34;;;;;;;9.83;7.37;;;;;;;0.58;100.00;97250.94;5062482;28;20236;-66
2022/04/02 07:09:00;;;;;;;8.07;6.53;;;;;;;0.58;100.00;97245.75;5040601;28;20241;-65
2022/04/02 07:11:27;;;;;;;9.10;8.13;;;;;;;0.57;100.00;97249.22;5066280;28;20211;-66
2022/04/02 07:13:53;;;;;;;9.37;7.77;;;;;;;0.71;100.00;97259.88;5063862;28;20219;-64
2022/04/02 07:16:20;;;;;;;8.53;7.30;;;;;;;0.64;100.00;97255.00;5062265;28;20591;-65
2022/04/02 07:18:49;;;;;;;11.03;8.30;;;;;;;0.69;100.00;97269.50;5064354;28;20223;-65
2022/04/02 07:21:17;;;;;;;9.27;7.17;;;;;;;0.70;100.00;97271.19;5061658;28;20216;-64
2022/04/02 07:23:46;;;;;;;9.77;7.87;;;;;;;0.65;100.00;97273.16;5062133;28;20215;-65
2022/04/02 07:26:13;;;;;;;9.13;7.60;;;;;;;0.70;100.00;97273.81;5062144;28;20245;-65
2022/04/02 07:28:43;;;;;;;7.83;6.73;;;;;;;0.70;100.00;97284.19;5046604;28;20246;-66
2022/04/02 07:31:09;;;;;;;8.77;7.33;;;;;;;0.62;100.00;97290.66;5066245;28;20578;-66
2022/04/02 07:33:36;;;;;;;8.53;7.27;;;;;;;0.65;100.00;97283.56;5063733;28;20215;-66
2022/04/02 07:36:08;;;;;;;7.90;7.10;;;;;;;0.71;100.00;97287.63;5066124;28;20235;-66
2022/04/02 07:38:39;;;;;;;8.03;6.67;;;;;;;0.73;100.00;97294.47;5045140;28;20234;-66
2022/04/02 07:41:18;;;;;;;9.27;6.33;;;;;;;0.76;100.00;97301.28;5069834;28;20640;-64
2022/04/02 07:43:51;;;;;;;8.03;6.63;;;;;;;0.63;100.00;97306.16;5059390;28;20208;-67
2022/04/02 07:46:20;;;;;;;10.03;6.53;;;;;;;0.70;100.00;97302.41;5068953;28;20243;-66
2022/04/02 07:48:48;;;;;;;7.27;6.27;;;;;;;0.63;100.00;97311.34;5069252;28;20223;-66
2022/04/02 07:51:18;;;;;;;8.47;6.37;;;;;;;0.70;100.00;97312.81;5067111;28;20211;-65
2022/04/02 07:53:47;;;;;;;7.30;6.40;;;;;;;0.74;100.00;97316.13;5065903;28;20217;-65
2022/04/02 07:56:21;;;;;;;9.00;6.87;;;;;;;0.68;100.00;97317.22;5042336;28;20223;-66
2022/04/02 07:58:52;;;;;;;7.97;6.90;;;;;;;0.69;100.00;97318.06;5068073;28;20225;-64
2022/04/02 08:01:20;;;;;;;10.33;7.00;;;;;;;0.66;100.00;97326.84;5059020;28;20210;-65
2022/04/02 08:03:47;;;;;;;9.97;6.87;;;;;;;0.75;100.00;97326.44;5066752;28;20217;-65
2022/04/02 08:06:15;;;;;;;8.00;6.90;;;;;;;0.75;100.00;97331.63;5068877;28;20245;-64
2022/04/02 08:08:42;;;;;;;11.97;7.07;;;;;;;0.77;100.00;97341.97;5067855;28;20238;-66
2022/04/02 08:11:09;;;;;;;9.40;6.50;;;;;;;0.75;100.00;97334.22;5061540;28;20227;-67
2022/04/02 08:13:38;;;;;;;8.47;6.70;;;;;;;0.71;100.00;97340.50;5065158;28;20687;-67
2022/04/02 08:16:05;;;;;;;7.90;6.37;;;;;;;0.71;100.00;97345.69;5069210;28;20224;-65
2022/04/02 08:18:31;;;;;;;9.70;6.33;;;;;;;0.70;100.00;97354.41;5068837;28;20679;-66
2022/04/02 08:20:58;;;;;;;8.23;7.43;;;;;;;0.54;100.00;97366.34;5059060;28;20581;-67
2022/04/02 08:23:25;;;;;;;7.93;6.50;;;;;;;0.57;100.00;97353.22;5066336;28;20222;-67
2022/04/02 08:26:00;;;;;;;8.33;6.77;;;;;;;0.66;100.00;97360.63;5068614;28;20235;-65
2022/04/02 08:28:35;;;;;;;7.37;6.40;;;;;;;0.65;100.00;97365.91;5068231;28;20421;-65
2022/04/02 08:31:11;;;;;;;8.07;6.90;;;;;;;0.66;100.00;97373.63;5064695;28;20215;-66
2022/04/02 08:33:47;;;;;;;10.13;7.57;;;;;;;0.72;100.00;97377.72;5053253;28;20606;-63
2022/04/02 08:36:20;;;;;;;8.27;6.90;;;;;;;0.71;100.00;97376.03;5067079;28;20224;-63
2022/04/02 08:38:58;;;;;;;11.20;7.30;;;;;;;0.72;100.00;97382.94;5059809;28;20216;-66
2022/04/02 08:42:11;;;;;;;10.13;6.53;;;;;;;0.63;100.00;97383.31;5049253;28;20558;-67
2022/04/02 08:45:08;;;;;;;7.80;7.00;;;;;;;0.64;100.00;97391.06;5058916;28;20211;-66
2022/04/02 08:48:12;;;;;;;11.10;7.53;;;;;;;0.69;100.00;97403.88;5052946;28;20211;-67
2022/04/02 08:50:45;;;;;;;9.53;7.37;;;;;;;0.74;100.00;97397.56;5059970;28;20217;-66
2022/04/02 08:53:18;;;;;;;11.30;7.93;;;;;;;0.68;100.00;97397.81;5048858;28;20212;-67
2022/04/02 08:55:48;;;;;;;10.23;7.57;;;;;;;0.75;100.00;97412.25;5068116;28;20220;-66
2022/04/02 08:58:24;;;;;;;9.63;8.00;;;;;;;0.77;100.00;97415.66;5065228;28;20208;-66
2022/04/02 09:01:07;;;;;;;9.60;8.00;;;;;;;0.62;100.00;97421.47;5064653;28;20216;-67
2022/04/02 09:04:27;;;;;;;8.87;7.60;;;;;;;0.73;100.00;97421.00;5058955;28;20241;-65
2022/04/02 09:07:35;;;;;;;9.90;8.07;;;;;;;0.72;100.00;97420.19;4995815;28;20237;-64
2022/04/02 09:10:21;;;;;;;10.33;8.23;;;;;;;0.80;100.00;97445.88;4993524;28;20218;-63
2022/04/02 09:13:06;;;;;;;11.70;8.10;;;;;;;0.75;100.00;97427.84;5041911;28;20218;-64
2022/04/02 09:15:50;;;;;;;11.03;8.83;;;;;;;0.73;100.00;97437.47;5048665;28;20653;-63
2022/04/02 09:18:29;;;;;;;12.13;8.70;;;;;;;0.72;100.00;97445.34;5045349;28;20255;-62
2022/04/02 09:20:57;;;;;;;9.50;7.97;;;;;;;0.74;100.00;97449.56;5047538;28;20353;-63
2022/04/02 09:23:41;;;;;;;11.10;8.27;;;;;;;0.75;100.00;97453.03;5055476;28;20208;-63
2022/04/02 09:26:44;;;;;;;11.90;8.63;;;;;;;0.75;100.00;97451.25;5043903;28;20268;-64
2022/04/02 09:29:16;;;;;;;11.97;9.00;;;;;;;0.67;100.00;97450.72;5047989;28;20589;-65
2022/04/02 09:32:16;;;;;;;11.37;8.30;;;;;;;0.65;100.00;97455.16;5045169;28;20216;-64
2022/04/02 09:35:19;;;;;;;10.23;8.70;;;;;;;0.63;100.00;97462.16;5041869;28;20230;-65
2022/04/02 09:38:25;;;;;;;11.70;9.43;;;;;;;0.60;100.00;97466.63;5038189;28;20213;-65
2022/04/02 09:40:53;;;;;;;11.00;8.43;;;;;;;0.56;100.00;97463.31;5054731;28;20302;-65
2022/04/02 09:43:26;;;;;;;13.77;8.13;;;;;;;0.60;100.00;97477.03;5059559;28;20274;-64
2022/04/02 09:46:11;;;;;;;12.00;8.53;;;;;;;0.61;100.00;97473.56;5059067;28;20243;-64
2022/04/02 09:48:52;;;;;;;12.33;8.80;;;;;;;0.58;100.00;97474.53;5051021;28;20608;-65
2022/04/02 09:51:21;;;;;;;9.70;8.07;;;;;;;0.68;100.00;97469.78;5056891;28;20622;-65
2022/04/02 09:53:59;;;;;;;13.67;8.70;;;;;;;0.63;100.00;97476.94;5059419;28;20212;-65
2022/04/02 09:56:34;;;;;;;11.53;8.80;;;;;;;0.64;100.00;97484.66;5046988;28;20218;-63
2022/04/02 09:59:05;;;;;;;9.37;7.77;;;;;;;0.66;100.00;97472.44;5061472;28;20215;-64
2022/04/02 10:01:47;;;;;;;11.10;8.67;;;;;;;0.73;100.00;97479.09;5059232;28;20215;-66
2022/04/02 10:04:34;;;;;;;12.57;8.67;;;;;;;0.80;100.00;97485.72;5046516;28;20216;-66
2022/04/02 10:07:04;;;;;;;11.97;8.20;;;;;;;0.81;100.00;97487.41;5060127;28;20581;-66
2022/04/02 10:09:34;;;;;;;10.33;8.40;;;;;;;0.78;100.00;97479.75;5054126;28;20633;-64
2022/04/02 10:12:03;;;;;;;10.77;8.67;;;;;;;0.75;100.00;97487.66;5060607;28;20223;-64
2022/04/02 10:14:30;;;;;;;10.43;8.60;;;;;;;0.73;100.00;97484.28;5063028;28;20243;-66
2022/04/02 10:16:58;;;;;;;13.70;8.87;;;;;;;0.90;100.00;97489.66;5059966;28;20222;-67
2022/04/02 10:19:29;;;;;;;11.03;8.37;;;;;;;0.97;100.00;97492.81;5058247;28;20704;-65
2022/04/02 10:21:57;;;;;;;9.73;7.77;;;;;;;0.94;100.00;97499.03;5056199;28;20208;-67
2022/04/02 10:24:25;;;;;;;11.50;7.80;;;;;;;0.96;100.00;97497.19;5056836;28;20211;-66
2022/04/02 10:26:54;;;;;;;10.10;8.07;;;;;;;1.03;100.00;97492.56;5053643;28;20243;-65
2022/04/02 10:29:50;;;;;;;8.80;7.87;;;;;;;0.90;100.00;97497.44;5050624;28;20204;-64
2022/04/02 10:32:33;;;;;;;10.17;8.00;;;;;;;0.85;100.00;97504.59;5053860;28;20227;-65
2022/04/02 10:35:05;;;;;;;11.37;8.47;;;;;;;0.96;100.00;97497.19;5052550;28;20220;-65
2022/04/02 10:37:39;;;;;;;10.10;7.50;;;;;;;1.07;100.00;97505.41;5055351;28;20215;-64
2022/04/02 10:40:07;;;;;;;10.00;8.40;;;;;;;1.04;100.00;97509.91;5058537;28;20623;-64
2022/04/02 10:42:36;;;;;;;9.27;7.80;;;;;;;0.96;100.00;97515.41;5061623;28;20226;-64
2022/04/02 10:45:07;;;;;;;10.90;8.57;;;;;;;0.97;100.00;97517.09;5059819;28;20238;-66
2022/04/02 10:47:42;;;;;;;10.37;8.40;;;;;;;1.09;100.00;97513.97;5060528;28;20323;-66
2022/04/02 10:50:10;;;;;;;10.80;8.20;;;;;;;1.14;100.00;97512.03;5061423;28;20214;-68
2022/04/02 10:52:37;;;;;;;9.00;8.10;;;;;;;1.07;100.00;97521.00;5059891;28;20223;-66
2022/04/02 10:55:05;;;;;;;9.90;7.87;;;;;;;1.07;100.00;97515.81;5059179;28;20270;-65
2022/04/02 10:57:34;;;;;;;9.70;7.97;;;;;;;1.04;100.00;97522.91;5060963;28;20223;-65
2022/04/02 11:00:03;;;;;;;9.43;8.23;;;;;;;1.00;100.00;97513.53;5062723;28;20226;-65
2022/04/02 11:02:41;;;;;;;9.77;8.30;;;;;;;1.04;100.00;97522.91;5060580;28;20318;-65
2022/04/02 11:05:09;;;;;;;11.20;8.37;;;;;;;1.09;100.00;97523.53;5054617;28;20219;-65
2022/04/02 11:07:40;;;;;;;11.03;8.30;;;;;;;1.20;100.00;97517.00;5060899;28;20344;-66
2022/04/02 11:10:08;;;;;;;10.97;7.87;;;;;;;1.22;100.00;97524.75;5065531;28;20228;-65
2022/04/02 11:12:38;;;;;;;11.40;8.03;;;;;;;0.98;100.00;97530.97;5063444;28;20265;-65
2022/04/02 11:15:11;;;;;;;11.27;8.47;;;;;;;0.92;100.00;97534.63;5062966;28;20223;-67
2022/04/02 11:17:41;;;;;;;11.57;8.40;;;;;;;0.74;100.00;97537.97;5049333;28;20223;-66
2022/04/02 11:20:11;;;;;;;11.23;9.20;;;;;;;0.73;100.00;97535.44;5066523;28;20223;-65
2022/04/02 11:23:07;;;;;;;10.90;8.83;;;;;;;0.78;100.00;97539.56;5062756;28;20219;-65
2022/04/02 11:25:35;;;;;;;10.07;8.53;;;;;;;0.78;100.00;97539.56;5049674;28;20772;-65
2022/04/02 11:28:11;;;;;;;11.23;8.83;;;;;;;0.72;100.00;97555.41;5066481;28;20243;-65
2022/04/02 11:30:40;;;;;;;12.30;10.00;;;;;;;0.76;100.00;97558.72;5061256;28;20219;-63
2022/04/02 11:33:10;;;;;;;11.60;9.20;;;;;;;0.80;100.00;97555.94;5063479;28;20223;-63
2022/04/02 11:35:41;;;;;;;11.97;9.30;;;;;;;0.84;100.00;97560.13;5066050;28;20676;-64
2022/04/02 11:38:31;;;;;;;13.43;8.87;;;;;;;0.87;100.00;97565.19;5065028;28;20597;-65
2022/04/02 11:41:03;;;;;;;11.80;9.03;;;;;;;0.87;100.00;97564.34;5059291;28;20223;-66